createdAt,value
2018-06-27T00:01:29.217Z,13.20
2018-06-27T00:03:57.536Z,13.10
2018-06-27T00:06:25.884Z,13.00
2018-06-27T00:08:54.212Z,13.00
2018-06-27T00:11:22.752Z,12.90
2018-06-27T00:13:51.081Z,12.70
2018-06-27T00:16:19.406Z,12.70
2018-06-27T00:18:47.739Z,12.60
2018-06-27T00:21:16.042Z,12.60
2018-06-27T00:23:44.412Z,12.50
2018-06-27T00:26:12.701Z,12.50
2018-06-27T00:28:41.063Z,12.50
2018-06-27T00:31:09.423Z,12.60
2018-06-27T00:33:37.754Z,12.60
2018-06-27T00:36:06.131Z,12.60
2018-06-27T00:38:34.447Z,12.50
2018-06-27T00:41:02.783Z,12.60
2018-06-27T00:43:31.095Z,12.60
2018-06-27T00:45:59.446Z,12.40
2018-06-27T00:48:27.915Z,12.50
2018-06-27T00:50:56.221Z,12.40
2018-06-27T00:53:29.799Z,12.40
2018-06-27T00:55:58.095Z,12.30
2018-06-27T00:58:26.438Z,12.20
2018-06-27T01:00:54.761Z,12.10
2018-06-27T01:03:23.084Z,12.00
2018-06-27T01:05:51.499Z,11.90
2018-06-27T01:10:47.861Z,11.80
2018-06-27T01:13:16.190Z,11.70
2018-06-27T01:15:44.589Z,11.70
2018-06-27T01:18:12.901Z,11.60
2018-06-27T01:20:41.217Z,11.60
2018-06-27T01:23:09.569Z,11.60
2018-06-27T01:25:37.897Z,11.50
2018-06-27T01:28:06.212Z,11.60
2018-06-27T01:30:34.550Z,11.50
2018-06-27T01:33:02.871Z,11.50
2018-06-27T01:35:31.183Z,11.50
2018-06-27T01:37:59.509Z,11.50
2018-06-27T01:40:27.809Z,11.50
2018-06-27T01:42:56.117Z,11.50
2018-06-27T01:45:24.445Z,11.50
2018-06-27T01:47:52.793Z,11.50
2018-06-27T01:50:23.109Z,11.50
2018-06-27T01:52:51.679Z,11.50
2018-06-27T01:55:20.010Z,11.50
2018-06-27T01:57:48.341Z,11.60
2018-06-27T02:00:16.664Z,11.60
2018-06-27T02:02:45.016Z,11.70
2018-06-27T02:05:13.360Z,11.70
2018-06-27T02:07:41.656Z,11.70
2018-06-27T02:10:09.988Z,11.60
2018-06-27T02:12:38.313Z,11.50
2018-06-27T02:15:06.962Z,11.40
2018-06-27T02:17:35.389Z,11.30
2018-06-27T02:20:03.783Z,11.30
2018-06-27T02:22:32.098Z,11.30
2018-06-27T02:25:00.398Z,11.30
2018-06-27T02:27:28.807Z,11.20
2018-06-27T02:29:57.055Z,11.10
2018-06-27T02:32:25.405Z,11.20
2018-06-27T02:34:53.753Z,11.10
2018-06-27T02:37:22.112Z,11.10
2018-06-27T02:39:50.469Z,11.10
2018-06-27T02:42:18.794Z,11.10
2018-06-27T02:44:47.079Z,11.10
2018-06-27T02:47:15.378Z,11.10
2018-06-27T02:49:43.730Z,11.00
2018-06-27T02:52:12.067Z,11.20
2018-06-27T02:54:40.370Z,11.10
2018-06-27T02:59:36.759Z,11.10
2018-06-27T03:02:05.097Z,11.10
2018-06-27T03:04:33.400Z,11.00
2018-06-27T03:07:01.713Z,10.90
2018-06-27T03:09:30.035Z,11.00
2018-06-27T03:14:26.368Z,10.90
2018-06-27T03:19:22.712Z,10.90
2018-06-27T03:21:51.022Z,10.90
2018-06-27T03:24:19.376Z,10.80
2018-06-27T03:26:47.724Z,10.80
2018-06-27T03:29:17.294Z,10.70
2018-06-27T03:31:45.626Z,10.80
2018-06-27T03:34:13.960Z,10.70
2018-06-27T03:36:42.303Z,10.70
2018-06-27T03:41:38.710Z,10.70
2018-06-27T03:44:07.339Z,10.70
2018-06-27T03:46:35.687Z,10.80
2018-06-27T03:49:04.045Z,10.80
2018-06-27T03:51:32.387Z,10.80
2018-06-27T03:54:00.763Z,10.80
2018-06-27T03:56:29.328Z,10.80
2018-06-27T04:01:25.771Z,10.80
2018-06-27T04:03:54.282Z,10.90
2018-06-27T04:06:22.630Z,10.90
2018-06-27T04:08:50.952Z,11.00
2018-06-27T04:11:19.272Z,11.00
2018-06-27T04:13:47.597Z,11.10
2018-06-27T04:16:15.922Z,11.20
2018-06-27T04:18:44.302Z,11.30
2018-06-27T04:21:12.602Z,11.40
2018-06-27T04:23:40.927Z,11.50
2018-06-27T04:26:09.278Z,11.50
2018-06-27T04:28:37.626Z,11.50
2018-06-27T04:31:06.076Z,11.50
2018-06-27T04:33:34.400Z,11.50
2018-06-27T04:36:02.774Z,11.60
2018-06-27T04:38:31.056Z,11.70
2018-06-27T04:40:59.378Z,12.00
2018-06-27T04:43:27.720Z,12.00
2018-06-27T04:45:56.032Z,12.20
2018-06-27T04:48:24.322Z,12.40
2018-06-27T04:50:52.654Z,12.60
2018-06-27T04:53:20.944Z,12.80
2018-06-27T04:55:49.292Z,13.00
2018-06-27T04:58:17.614Z,13.20
2018-06-27T05:00:45.942Z,13.30
2018-06-27T05:03:14.293Z,13.30
2018-06-27T05:05:42.609Z,13.40
2018-06-27T05:08:10.980Z,13.40
2018-06-27T05:10:39.272Z,13.50
2018-06-27T05:13:07.608Z,13.40
2018-06-27T05:15:35.933Z,13.50
2018-06-27T05:18:04.620Z,13.60
2018-06-27T05:20:33.048Z,13.70
2018-06-27T05:23:01.403Z,13.90
2018-06-27T05:25:29.738Z,14.10
2018-06-27T05:27:58.084Z,14.20
2018-06-27T05:32:54.490Z,14.70
2018-06-27T05:35:22.975Z,14.90
2018-06-27T05:37:51.316Z,15.20
2018-06-27T05:40:19.725Z,15.50
2018-06-27T05:42:48.035Z,15.90
2018-06-27T05:45:16.321Z,16.10
2018-06-27T05:47:44.640Z,16.20
2018-06-27T05:50:12.944Z,16.30
2018-06-27T05:52:41.314Z,16.40
2018-06-27T05:55:10.740Z,16.70
2018-06-27T05:57:40.569Z,16.90
2018-06-27T06:00:09.781Z,17.30
2018-06-27T06:02:38.142Z,17.50
2018-06-27T06:05:06.510Z,17.70
2018-06-27T06:07:34.838Z,18.00
2018-06-27T06:10:03.602Z,18.20
2018-06-27T06:12:31.877Z,18.60
2018-06-27T06:15:00.364Z,18.70
2018-06-27T06:17:28.696Z,19.10
2018-06-27T06:19:57.060Z,19.10
2018-06-27T06:22:25.411Z,19.30
2018-06-27T06:24:53.731Z,19.60
2018-06-27T06:27:22.062Z,19.80
2018-06-27T06:29:50.400Z,19.80
2018-06-27T06:32:18.762Z,19.90
2018-06-27T06:34:47.057Z,20.10
2018-06-27T06:37:15.383Z,20.60
2018-06-27T06:39:43.712Z,20.80
2018-06-27T06:42:12.029Z,21.00
2018-06-27T06:44:40.349Z,21.30
2018-06-27T06:47:08.678Z,21.70
2018-06-27T06:49:37.026Z,21.60
2018-06-27T06:52:05.552Z,21.10
2018-06-27T06:54:34.166Z,21.20
2018-06-27T06:57:02.518Z,22.10
2018-06-27T06:59:30.865Z,22.80
2018-06-27T07:01:59.257Z,23.00
2018-06-27T07:04:27.601Z,23.10
2018-06-27T07:06:55.919Z,23.20
2018-06-27T07:09:24.240Z,23.20
2018-06-27T07:11:52.578Z,23.70
2018-06-27T07:14:20.920Z,23.80
2018-06-27T07:16:49.261Z,23.90
2018-06-27T07:19:17.631Z,23.90
2018-06-27T07:21:45.957Z,24.20
2018-06-27T07:24:14.263Z,24.50
2018-06-27T07:26:42.655Z,24.50
2018-06-27T07:29:11.061Z,25.20
2018-06-27T07:31:39.473Z,25.40
2018-06-27T07:34:07.856Z,25.60
2018-06-27T07:36:36.361Z,26.10
2018-06-27T07:39:07.537Z,25.70
2018-06-27T07:41:36.247Z,25.80
2018-06-27T07:44:04.614Z,25.70
2018-06-27T07:46:33.633Z,25.20
2018-06-27T07:49:01.972Z,25.50
2018-06-27T07:51:30.300Z,25.30
2018-06-27T07:53:58.623Z,25.20
2018-06-27T07:56:27.092Z,25.30
2018-06-27T07:58:55.466Z,24.80
2018-06-27T08:01:23.779Z,24.60
2018-06-27T08:03:52.126Z,24.70
2018-06-27T08:06:20.445Z,25.20
2018-06-27T08:08:48.931Z,24.90
2018-06-27T08:11:17.490Z,25.20
2018-06-27T08:13:45.838Z,25.20
2018-06-27T08:16:14.220Z,25.20
2018-06-27T08:18:43.682Z,25.10
2018-06-27T08:21:12.119Z,25.10
2018-06-27T08:23:40.473Z,25.40
2018-06-27T08:26:08.945Z,25.30
2018-06-27T08:28:37.230Z,25.50
2018-06-27T08:31:05.568Z,25.30
2018-06-27T08:33:33.978Z,25.80
2018-06-27T08:36:02.363Z,26.20
2018-06-27T08:38:30.768Z,26.10
2018-06-27T08:40:59.097Z,25.70
2018-06-27T08:43:27.534Z,25.70
2018-06-27T08:45:56.672Z,25.80
2018-06-27T08:48:25.072Z,25.70
2018-06-27T08:50:53.407Z,25.30
2018-06-27T08:53:21.783Z,25.50
2018-06-27T08:55:50.144Z,25.50
2018-06-27T08:58:18.482Z,25.50
2018-06-27T09:00:46.811Z,25.20
2018-06-27T09:03:15.198Z,25.30
2018-06-27T09:05:43.622Z,25.20
2018-06-27T09:08:12.024Z,25.20
2018-06-27T09:10:40.379Z,24.70
2018-06-27T09:13:08.678Z,24.90
2018-06-27T09:15:37.058Z,24.90
2018-06-27T09:18:05.376Z,25.10
2018-06-27T09:20:33.718Z,24.90
2018-06-27T09:23:02.101Z,24.50
2018-06-27T09:25:30.465Z,24.60
2018-06-27T09:27:58.794Z,24.90
2018-06-27T09:30:27.174Z,25.10
2018-06-27T09:32:55.605Z,24.70
2018-06-27T09:35:23.929Z,24.30
2018-06-27T09:37:52.307Z,24.50
2018-06-27T09:40:20.698Z,24.90
2018-06-27T09:42:49.018Z,24.80
2018-06-27T09:45:17.421Z,25.10
2018-06-27T09:47:45.864Z,25.20
2018-06-27T09:50:14.356Z,25.00
2018-06-27T09:52:42.777Z,24.80
2018-06-27T09:55:11.132Z,24.90
2018-06-27T09:57:39.486Z,25.10
2018-06-27T10:00:12.079Z,24.70
2018-06-27T10:02:40.412Z,25.00
2018-06-27T10:05:08.974Z,25.30
2018-06-27T10:07:37.332Z,25.30
2018-06-27T10:10:05.663Z,25.20
2018-06-27T10:12:34.011Z,25.50
2018-06-27T10:15:02.389Z,25.90
2018-06-27T10:17:30.751Z,25.50
2018-06-27T10:19:59.095Z,24.90
2018-06-27T10:22:27.494Z,25.10
2018-06-27T10:24:55.829Z,25.10
2018-06-27T10:27:24.203Z,25.00
2018-06-27T10:29:52.564Z,25.20
2018-06-27T10:32:20.902Z,25.20
2018-06-27T10:34:49.272Z,24.90
2018-06-27T10:37:17.600Z,24.80
2018-06-27T10:39:45.987Z,24.90
2018-06-27T10:42:14.325Z,25.10
2018-06-27T10:44:42.658Z,25.20
2018-06-27T10:47:11.046Z,25.00
2018-06-27T10:49:39.401Z,24.40
2018-06-27T10:52:07.746Z,24.40
2018-06-27T10:54:54.625Z,24.90
2018-06-27T10:57:23.945Z,25.60
2018-06-27T10:59:53.471Z,25.60
2018-06-27T11:02:22.375Z,25.40
2018-06-27T11:04:50.864Z,25.10
2018-06-27T11:07:19.261Z,25.10
2018-06-27T11:09:47.617Z,25.40
2018-06-27T11:12:15.962Z,25.00
2018-06-27T11:14:44.329Z,25.20
2018-06-27T11:17:12.681Z,25.50
2018-06-27T11:19:41.053Z,25.60
2018-06-27T11:22:09.376Z,25.30
2018-06-27T11:24:37.727Z,25.20
2018-06-27T11:27:06.100Z,24.90
2018-06-27T11:29:34.458Z,25.10
2018-06-27T11:32:02.776Z,25.30
2018-06-27T11:34:31.093Z,25.00
2018-06-27T11:36:59.466Z,25.30
2018-06-27T11:39:27.826Z,25.70
2018-06-27T11:41:56.194Z,25.20
2018-06-27T11:44:24.555Z,24.60
2018-06-27T11:46:52.928Z,24.70
2018-06-27T11:49:21.280Z,24.60
2018-06-27T11:54:17.705Z,25.10
2018-06-27T11:56:46.069Z,25.70
2018-06-27T11:59:14.468Z,26.70
2018-06-27T12:01:42.831Z,26.10
2018-06-27T12:04:11.199Z,25.70
2018-06-27T12:06:39.780Z,26.20
2018-06-27T12:09:09.613Z,26.10
2018-06-27T12:11:38.349Z,26.00
2018-06-27T12:14:06.731Z,25.90
2018-06-27T12:16:35.111Z,26.00
2018-06-27T12:19:03.449Z,26.80
2018-06-27T12:21:31.793Z,27.50
2018-06-27T12:24:00.174Z,26.70
2018-06-27T12:26:28.609Z,25.20
2018-06-27T12:28:56.885Z,24.70
2018-06-27T12:31:25.303Z,24.80
2018-06-27T12:33:53.661Z,24.90
2018-06-27T12:36:21.973Z,24.70
2018-06-27T12:38:50.394Z,24.20
2018-06-27T12:41:18.918Z,24.20
2018-06-27T12:43:47.474Z,24.30
2018-06-27T12:46:15.855Z,24.80
2018-06-27T12:48:44.477Z,26.30
2018-06-27T12:51:12.920Z,27.00
2018-06-27T12:53:41.609Z,27.80
2018-06-27T12:56:10.157Z,28.00
2018-06-27T12:58:38.580Z,28.80
2018-06-27T13:01:06.981Z,29.40
2018-06-27T13:03:35.338Z,28.30
2018-06-27T13:06:03.737Z,27.60
2018-06-27T13:08:32.104Z,27.00
2018-06-27T13:11:00.529Z,26.40
2018-06-27T13:13:28.828Z,25.90
2018-06-27T13:15:57.202Z,25.50
2018-06-27T13:18:26.116Z,26.20
2018-06-27T13:20:55.350Z,26.80
2018-06-27T13:23:23.695Z,27.10
2018-06-27T13:25:52.088Z,27.80
2018-06-27T13:28:20.442Z,27.30
2018-06-27T13:30:48.765Z,27.50
2018-06-27T13:33:17.090Z,26.40
2018-06-27T13:35:45.493Z,25.80
2018-06-27T13:38:13.842Z,25.30
2018-06-27T13:40:42.258Z,24.70
2018-06-27T13:43:10.579Z,24.60
2018-06-27T13:45:38.953Z,26.40
2018-06-27T13:48:07.382Z,28.00
2018-06-27T13:50:35.751Z,28.40
2018-06-27T13:53:04.138Z,28.30
2018-06-27T13:55:32.482Z,26.70
2018-06-27T13:58:00.819Z,25.60
2018-06-27T14:00:29.187Z,24.80
2018-06-27T14:02:57.560Z,25.10
2018-06-27T14:05:25.902Z,27.20
2018-06-27T14:07:54.366Z,29.00
2018-06-27T14:12:50.754Z,29.90
2018-06-27T14:15:19.079Z,29.00
2018-06-27T14:17:47.481Z,28.00
2018-06-27T14:20:15.829Z,26.70
2018-06-27T14:22:44.270Z,26.60
2018-06-27T14:25:12.630Z,27.80
2018-06-27T14:27:40.978Z,27.80
2018-06-27T14:30:09.378Z,27.00
2018-06-27T14:32:37.721Z,27.40
2018-06-27T14:35:06.034Z,26.90
2018-06-27T14:37:34.421Z,26.00
2018-06-27T14:40:02.783Z,24.90
2018-06-27T14:42:31.144Z,25.70
2018-06-27T14:44:59.503Z,27.50
2018-06-27T14:47:27.936Z,28.50
2018-06-27T14:49:56.262Z,29.00
2018-06-27T14:52:24.661Z,28.70
2018-06-27T14:54:53.031Z,28.80
2018-06-27T14:57:21.420Z,28.70
2018-06-27T14:59:49.794Z,28.90
2018-06-27T15:02:18.202Z,28.70
2018-06-27T15:04:46.595Z,29.00
2018-06-27T15:07:15.071Z,29.10
2018-06-27T15:09:43.479Z,28.90
2018-06-27T15:12:11.921Z,28.60
2018-06-27T15:14:40.901Z,29.10
2018-06-27T15:17:09.237Z,29.10
2018-06-27T15:19:37.707Z,29.00
2018-06-27T15:22:06.051Z,29.00
2018-06-27T15:24:34.373Z,29.20
2018-06-27T15:27:02.774Z,28.80
2018-06-27T15:29:31.169Z,28.60
2018-06-27T15:34:27.700Z,28.70
2018-06-27T15:36:56.058Z,29.40
2018-06-27T15:39:24.409Z,29.20
2018-06-27T15:41:52.833Z,28.50
2018-06-27T15:44:21.226Z,29.30
2018-06-27T15:49:17.938Z,29.10
2018-06-27T15:51:46.366Z,28.70
2018-06-27T15:54:14.742Z,28.60
2018-06-27T15:56:43.125Z,28.10
2018-06-27T16:01:39.633Z,28.80
2018-06-27T16:04:08.034Z,28.40
2018-06-27T16:06:36.416Z,28.10
2018-06-27T16:09:08.231Z,27.50
2018-06-27T16:11:36.647Z,27.60
2018-06-27T16:14:05.146Z,27.30
2018-06-27T16:16:33.725Z,27.70
2018-06-27T16:19:03.008Z,27.90
2018-06-27T16:21:31.630Z,27.80
2018-06-27T16:24:00.367Z,28.70
2018-06-27T16:26:28.701Z,28.10
2018-06-27T16:28:57.058Z,27.10
2018-06-27T16:31:25.426Z,27.30
2018-06-27T16:33:54.006Z,27.40
2018-06-27T16:36:22.391Z,27.20
2018-06-27T16:38:50.775Z,27.20
2018-06-27T16:41:19.182Z,27.70
2018-06-27T16:43:48.278Z,27.70
2018-06-27T16:46:16.719Z,27.50
2018-06-27T16:48:45.082Z,27.50
2018-06-27T16:51:13.720Z,27.20
2018-06-27T16:53:42.069Z,26.30
2018-06-27T16:56:10.429Z,26.00
2018-06-27T16:58:38.790Z,26.10
2018-06-27T17:01:07.282Z,26.30
2018-06-27T17:03:35.636Z,26.50
2018-06-27T17:06:04.056Z,25.90
2018-06-27T17:08:32.424Z,25.20
2018-06-27T17:11:00.772Z,24.70
2018-06-27T17:13:29.134Z,24.20
2018-06-27T17:15:57.502Z,24.30
2018-06-27T17:18:28.811Z,24.30
2018-06-27T17:23:25.318Z,24.50
2018-06-27T17:25:53.732Z,24.20
2018-06-27T17:28:22.125Z,24.10
2018-06-27T17:30:50.520Z,23.80
2018-06-27T17:33:18.920Z,23.60
2018-06-27T17:35:47.249Z,23.40
2018-06-27T17:38:15.650Z,23.30
2018-06-27T17:43:12.113Z,23.00
2018-06-27T17:50:36.565Z,22.40
2018-06-27T17:53:04.954Z,22.30
2018-06-27T17:55:33.301Z,22.30
2018-06-27T17:58:01.684Z,22.30
2018-06-27T18:00:30.081Z,22.30
2018-06-27T18:02:58.490Z,22.20
2018-06-27T18:05:26.811Z,22.20
2018-06-27T18:07:55.175Z,22.20
2018-06-27T18:10:23.530Z,22.20
2018-06-27T18:12:52.223Z,22.20
2018-06-27T18:15:20.574Z,22.30
2018-06-27T18:17:48.957Z,22.00
2018-06-27T18:20:17.894Z,21.90
2018-06-27T18:22:47.624Z,21.80
2018-06-27T18:25:16.011Z,21.60
2018-06-27T18:27:53.801Z,21.60
2018-06-27T18:30:22.197Z,21.50
2018-06-27T18:32:50.564Z,21.50
2018-06-27T18:35:18.960Z,21.40
2018-06-27T18:37:47.353Z,21.40
2018-06-27T18:40:15.821Z,21.30
2018-06-27T18:42:44.205Z,21.30
2018-06-27T18:45:12.536Z,21.30
2018-06-27T18:47:40.901Z,21.40
2018-06-27T18:50:09.290Z,21.30
2018-06-27T18:52:37.721Z,21.20
2018-06-27T18:55:06.133Z,21.00
2018-06-27T18:57:34.548Z,20.90
2018-06-27T19:00:03.036Z,20.90
2018-06-27T19:02:31.515Z,20.80
2018-06-27T19:04:59.903Z,20.60
2018-06-27T19:07:28.419Z,20.40
2018-06-27T19:09:56.853Z,20.40
2018-06-27T19:12:25.217Z,20.30
2018-06-27T19:14:53.606Z,20.20
2018-06-27T19:17:22.130Z,20.20
2018-06-27T19:19:50.529Z,20.00
2018-06-27T19:22:18.897Z,20.00
2018-06-27T19:24:47.317Z,19.90
2018-06-27T19:27:15.662Z,19.80
2018-06-27T19:29:44.061Z,19.70
2018-06-27T19:32:12.473Z,19.60
2018-06-27T19:34:40.897Z,19.60
2018-06-27T19:37:09.981Z,19.50
2018-06-27T19:39:38.537Z,19.50
2018-06-27T19:42:06.952Z,19.40
2018-06-27T19:44:35.691Z,19.30
2018-06-27T19:47:04.177Z,19.10
2018-06-27T19:49:32.807Z,19.10
2018-06-27T19:52:01.319Z,19.10
2018-06-27T19:54:29.737Z,19.00
2018-06-27T19:56:58.150Z,19.00
2018-06-27T19:59:26.547Z,18.80
2018-06-27T20:01:54.950Z,18.60
2018-06-27T20:04:23.524Z,18.50
2018-06-27T20:06:51.864Z,18.50
2018-06-27T20:09:20.237Z,18.30
2018-06-27T20:11:48.616Z,18.30
2018-06-27T20:14:17.165Z,18.20
2018-06-27T20:16:45.478Z,18.20
2018-06-27T20:19:14.321Z,18.20
2018-06-27T20:21:42.635Z,18.10
2018-06-27T20:24:11.953Z,18.00
2018-06-27T20:26:40.335Z,18.00
2018-06-27T20:29:09.022Z,17.80
2018-06-27T20:31:37.453Z,17.70
2018-06-27T20:34:05.885Z,17.60
2018-06-27T20:36:34.409Z,17.40
2018-06-27T20:39:02.792Z,17.20
2018-06-27T20:41:31.207Z,17.10
2018-06-27T20:43:59.574Z,16.90
2018-06-27T20:46:27.944Z,16.80
2018-06-27T20:48:56.384Z,16.70
2018-06-27T20:53:52.865Z,16.70
2018-06-27T20:56:21.262Z,16.50
2018-06-27T20:58:49.693Z,16.40
2018-06-27T21:01:18.131Z,16.20
2018-06-27T21:03:46.470Z,16.10
2018-06-27T21:06:14.895Z,16.10
2018-06-27T21:08:43.266Z,16.00
2018-06-27T21:11:11.639Z,15.80
2018-06-27T21:13:40.023Z,15.80
2018-06-27T21:16:08.409Z,15.80
2018-06-27T21:18:37.086Z,15.70
2018-06-27T21:21:05.453Z,15.60
2018-06-27T21:23:33.925Z,15.60
2018-06-27T21:26:02.364Z,15.50
2018-06-27T21:28:30.672Z,15.50
2018-06-27T21:30:59.049Z,15.50
2018-06-27T21:33:27.398Z,15.60
2018-06-27T21:35:55.770Z,15.50
2018-06-27T21:38:24.387Z,15.40
2018-06-27T21:40:52.751Z,15.30
2018-06-27T21:43:21.082Z,15.30
2018-06-27T21:45:49.497Z,15.10
2018-06-27T21:48:17.890Z,15.00
2018-06-27T21:50:46.310Z,15.00
2018-06-27T21:53:14.742Z,14.90
2018-06-27T21:55:43.144Z,14.90
2018-06-27T21:58:11.489Z,14.80
2018-06-27T22:03:08.009Z,14.80
2018-06-27T22:05:36.421Z,14.70
2018-06-27T22:08:04.785Z,14.60
2018-06-27T22:10:33.126Z,14.60
2018-06-27T22:13:01.451Z,14.50
2018-06-27T22:15:29.841Z,14.50
2018-06-27T22:17:58.247Z,14.50
2018-06-27T22:20:26.623Z,14.50
2018-06-27T22:22:54.961Z,14.60
2018-06-27T22:25:23.316Z,14.50
2018-06-27T22:27:51.669Z,14.50
2018-06-27T22:30:20.082Z,14.50
2018-06-27T22:32:48.477Z,14.50
2018-06-27T22:35:16.825Z,14.50
2018-06-27T22:37:45.368Z,14.50
2018-06-27T22:40:13.697Z,14.50
2018-06-27T22:42:42.060Z,14.50
2018-06-27T22:45:11.265Z,14.50
2018-06-27T22:47:39.652Z,14.50
2018-06-27T22:50:08.035Z,14.50
2018-06-27T22:55:04.461Z,14.40
2018-06-27T22:57:32.809Z,14.30
2018-06-27T23:00:01.225Z,14.20
2018-06-27T23:02:29.560Z,14.30
2018-06-27T23:04:57.971Z,14.10
2018-06-27T23:07:26.400Z,14.00
2018-06-27T23:09:55.006Z,13.90
2018-06-27T23:12:23.342Z,13.90
2018-06-27T23:19:47.885Z,13.70
2018-06-27T23:22:27.529Z,13.60
2018-06-27T23:24:55.912Z,13.60
2018-06-27T23:27:24.564Z,13.60
2018-06-27T23:29:52.954Z,13.50
2018-06-27T23:32:21.314Z,13.60
2018-06-27T23:34:49.700Z,13.50
2018-06-27T23:37:18.186Z,13.50
2018-06-27T23:39:46.530Z,13.60
2018-06-27T23:42:14.929Z,13.50
2018-06-27T23:44:43.300Z,13.50
2018-06-27T23:47:11.670Z,13.60
2018-06-27T23:49:40.036Z,13.60
2018-06-27T23:57:04.494Z,13.50
2018-06-27T23:59:32.836Z,13.50
